Time;durP1;ratioP1;P1;durP2;ratioP2;P2;SDS_P1;SDS_P2;PMS_P1;PMS_P2;Temp;Humidity;BMP_temperature;BMP_pressure;BME280_temperature;BME280_humidity;BME280_pressure;Samples;Min_cycle;Max_cycle;Signal;HPM_P1;HPM_P2
2023/08/14 00:02:14;;;;;;;10.47;3.93;;;;;;;15.53;100.00;25597.63;5076778;28;20124;-73
2023/08/14 00:04:40;;;;;;;7.67;4.17;;;;;;;15.56;100.00;24558.88;5072662;28;20040;-73
2023/08/14 00:07:05;;;;;;;13.70;4.57;;;;;;;15.57;100.00;22826.03;5078916;28;20028;-73
2023/08/14 00:09:30;;;;;;;9.93;3.97;;;;;;;15.54;100.00;22824.81;5081227;28;20338;-73
2023/08/14 00:11:56;;;;;;;10.03;4.57;;;;;;;15.54;100.00;21092.22;5065013;28;20036;-73
2023/08/14 00:14:21;;;;;;;14.37;4.83;;;;;;;15.44;100.00;21781.22;5078582;28;20427;-73
2023/08/14 00:16:46;;;;;;;13.30;4.33;;;;;;;15.42;100.00;22473.50;5077905;28;20031;-73
2023/08/14 00:19:12;;;;;;;8.93;4.70;;;;;;;15.40;100.00;23165.47;5073762;28;20071;-73
2023/08/14 00:21:37;;;;;;;13.50;4.77;;;;;;;15.39;100.00;23165.28;5078416;28;20035;-72
2023/08/14 00:24:03;;;;;;;14.30;4.93;;;;;;;15.43;100.00;22473.72;5078569;28;20027;-73
2023/08/14 00:26:28;;;;;;;7.60;4.67;;;;;;;15.40;100.00;23512.00;5059798;28;20713;-73
2023/08/14 00:28:53;;;;;;;12.40;4.53;;;;;;;15.38;100.00;23857.94;5075753;28;20037;-73
2023/08/14 00:31:19;;;;;;;18.27;4.80;;;;;;;15.35;100.00;25589.78;5075339;28;20123;-73
2023/08/14 00:33:44;;;;;;;14.60;5.60;;;;;;;15.39;100.00;24204.72;5076010;28;20476;-73
2023/08/14 00:36:09;;;;;;;9.60;4.17;;;;;;;15.28;100.00;24893.19;5060135;28;20479;-73
2023/08/14 00:38:35;;;;;;;8.87;4.50;;;;;;;15.31;100.00;22815.38;5077521;28;20109;-70
2023/08/14 00:41:01;;;;;;;9.40;4.40;;;;;;;15.27;100.00;22467.56;5078487;28;20040;-70
2023/08/14 00:43:27;;;;;;;14.27;4.95;;;;;;;15.33;100.00;21084.34;5076828;28;20426;-70
2023/08/14 00:45:58;;;;;;;13.77;4.87;;;;;;;15.33;100.00;21084.34;5077766;28;20040;-69
2023/08/14 00:48:25;;;;;;;12.80;5.18;;;;;;;15.39;100.00;19355.56;5077905;28;20031;-72
2023/08/14 00:50:51;;;;;;;;;;;;;;;15.38;100.00;18662.78;5078030;28;20036;-69
2023/08/14 00:53:17;;;;;;;12.60;5.13;;;;;;;15.39;100.00;17625.09;5073635;28;19916;-71
2023/08/14 00:55:43;;;;;;;13.38;5.53;;;;;;;15.46;100.00;14859.88;5062851;28;20083;-70
2023/08/14 00:58:08;;;;;;;12.90;5.53;;;;;;;15.47;100.00;13822.84;5058449;28;20075;-69
2023/08/14 01:00:35;;;;;;;13.53;5.17;;;;;;;15.48;100.00;13477.25;5076042;28;20119;-70
2023/08/14 01:03:01;;;;;;;9.40;4.38;;;;;;;15.42;100.00;14167.16;5077829;28;20021;-70
2023/08/14 01:05:27;;;;;;;14.40;5.57;;;;;;;15.41;100.00;14167.00;5073839;28;20032;-72
2023/08/14 01:07:52;;;;;;;10.03;5.17;;;;;;;15.35;100.00;14165.44;5072792;28;20025;-70
2023/08/14 01:10:18;;;;;;;33.20;5.70;;;;;;;15.33;100.00;13819.25;5075376;28;20028;-70
2023/08/14 01:12:56;;;;;;;11.40;5.00;;;;;;;15.28;100.00;14163.47;5059385;28;20034;-71
2023/08/14 01:15:46;;;;;;;9.60;4.80;;;;;;;15.13;100.00;17616.84;5071967;28;20056;-69
2023/08/14 01:18:16;;;;;;;10.20;4.43;;;;;;;15.12;100.00;19346.22;5077838;28;20024;-69
2023/08/14 01:20:49;;;;;;;13.75;4.90;;;;;;;15.17;100.00;18309.78;5076590;28;20028;-70
2023/08/14 01:23:39;;;;;;;10.93;4.38;;;;;;;15.13;100.00;17616.84;5062146;28;20085;-69
2023/08/14 01:26:05;;;;;;;8.68;4.90;;;;;;;15.11;100.00;16924.56;5074743;28;20077;-71
2023/08/14 01:28:31;;;;;;;14.87;5.37;;;;;;;15.08;100.00;16232.00;5073543;28;20035;-69
2023/08/14 01:30:57;;;;;;;9.23;4.72;;;;;;;15.05;100.00;15539.91;5081161;28;20056;-70
2023/08/14 01:33:22;;;;;;;11.90;5.07;;;;;;;15.07;100.00;14849.09;5081276;28;20074;-71
2023/08/14 01:35:54;;;;;;;13.20;4.87;;;;;;;15.08;100.00;14158.25;5075117;28;20502;-70
2023/08/14 01:38:32;;;;;;;12.88;4.10;;;;;;;15.06;100.00;14503.28;5080204;28;20467;-69
2023/08/14 01:41:18;;;;;;;13.60;5.30;;;;;;;15.03;100.00;15885.00;5081827;28;20471;-70
2023/08/14 01:43:57;;;;;;;11.88;4.68;;;;;;;15.04;100.00;16230.97;5081164;28;20071;-69
2023/08/14 01:46:25;;;;;;;11.55;4.03;;;;;;;15.03;100.00;16230.50;5076192;28;20040;-70
2023/08/14 01:48:52;;;;;;;12.05;3.95;;;;;;;15.04;100.00;15885.13;5069425;28;20027;-70
2023/08/14 01:51:20;;;;;;;10.40;4.05;;;;;;;15.03;100.00;15539.22;5060362;28;20490;-69
2023/08/14 01:53:46;;;;;;;9.57;3.90;;;;;;;14.96;100.00;16574.13;5079173;28;20055;-69
2023/08/14 01:56:12;;;;;;;5.20;3.13;;;;;;;14.94;100.00;16573.66;5077930;28;20035;-69
2023/08/14 01:58:37;;;;;;;6.97;3.73;;;;;;;15.00;100.00;15538.34;5084445;28;20028;-70
2023/08/14 02:01:03;;;;;;;6.00;3.47;;;;;;;14.93;100.00;16227.56;5065147;28;20039;-71
2023/08/14 02:03:28;;;;;;;10.07;3.87;;;;;;;14.88;100.00;16226.09;5064131;28;20068;-71
2023/08/14 02:05:53;;;;;;;13.20;3.80;;;;;;;14.97;100.00;15191.94;5078714;28;20146;-70
2023/08/14 02:08:19;;;;;;;7.80;3.87;;;;;;;15.00;100.00;13810.72;5079614;28;20411;-69
2023/08/14 02:10:46;;;;;;;4.47;3.13;;;;;;;14.92;100.00;15536.09;5079555;28;20104;-69
2023/08/14 02:13:12;;;;;;;8.18;3.78;;;;;;;14.88;100.00;16917.50;5076842;28;20024;-69
2023/08/14 02:15:37;;;;;;;7.30;3.60;;;;;;;14.90;100.00;16918.13;5075256;28;20496;-69
2023/08/14 02:18:03;;;;;;;10.10;4.17;;;;;;;14.97;100.00;15883.25;5081323;28;20032;-70
2023/08/14 02:20:28;;;;;;;10.50;3.77;;;;;;;14.89;100.00;16572.16;5083884;28;20027;-70
2023/08/14 02:22:53;;;;;;;10.47;3.53;;;;;;;14.82;100.00;17607.00;5060675;28;20025;-70
2023/08/14 02:25:19;;;;;;;11.37;4.27;;;;;;;14.79;100.00;18988.84;5073200;28;20028;-69
2023/08/14 02:27:44;;;;;;;6.97;3.33;;;;;;;14.75;100.00;20371.00;5079896;28;20040;-68
2023/08/14 02:30:10;;;;;;;9.87;3.77;;;;;;;14.73;100.00;20370.09;5075879;28;20448;-69
2023/08/14 02:32:35;;;;;;;4.27;2.97;;;;;;;14.77;100.00;19334.13;5079846;28;20028;-73
2023/08/14 02:35:01;;;;;;;6.57;4.10;;;;;;;14.74;100.00;19333.09;5081784;28;20115;-73
2023/08/14 02:37:26;;;;;;;8.70;3.70;;;;;;;14.74;100.00;19332.91;5081545;28;20034;-73
2023/08/14 02:39:52;;;;;;;7.00;3.47;;;;;;;14.78;100.00;18642.72;5074600;28;20597;-72
2023/08/14 02:42:19;;;;;;;6.67;3.50;;;;;;;14.82;100.00;18298.44;5077685;28;20044;-72
2023/08/14 02:44:46;;;;;;;8.90;3.45;;;;;;;14.83;100.00;18298.78;5063118;28;20485;-73
2023/08/14 02:47:11;;;;;;;5.55;3.13;;;;;;;14.86;100.00;17954.00;5077382;28;20040;-73
2023/08/14 02:49:37;;;;;;;7.13;3.30;;;;;;;14.79;100.00;18989.00;5061175;28;20032;-73
2023/08/14 02:52:03;;;;;;;8.67;4.33;;;;;;;14.76;100.00;19679.44;5079060;28;20024;-72
2023/08/14 02:54:28;;;;;;;5.43;3.20;;;;;;;14.72;100.00;20369.91;5076157;28;20030;-73
2023/08/14 02:56:54;;;;;;;8.67;3.87;;;;;;;14.72;100.00;21061.56;5061908;28;20404;-72
2023/08/14 02:59:19;;;;;;;8.07;3.50;;;;;;;14.71;100.00;20715.25;5060499;28;20020;-73
2023/08/14 03:01:45;;;;;;;6.90;3.07;;;;;;;14.63;100.00;21750.03;5081705;28;20480;-73
2023/08/14 03:04:10;;;;;;;6.23;3.50;;;;;;;14.63;100.00;22442.19;5062918;28;20051;-73
2023/08/14 03:06:36;;;;;;;9.03;3.03;;;;;;;14.57;100.00;22785.81;5076802;28;20028;-73
2023/08/14 03:09:03;;;;;;;9.30;3.80;;;;;;;14.60;100.00;22441.00;5079750;28;20028;-73
2023/08/14 03:11:28;;;;;;;6.95;3.03;;;;;;;14.58;100.00;22786.03;5082193;28;20038;-72
2023/08/14 03:13:53;;;;;;;8.30;3.23;;;;;;;14.54;100.00;22784.41;5077872;28;20028;-72
2023/08/14 03:16:19;;;;;;;7.33;3.80;;;;;;;14.48;100.00;24166.09;5076781;28;20086;-73
2023/08/14 03:18:44;;;;;;;10.63;3.47;;;;;;;14.47;100.00;24165.88;5083418;28;20063;-73
2023/08/14 03:21:09;;;;;;;6.10;3.00;;;;;;;14.45;100.00;24164.81;5080085;28;20031;-70
2023/08/14 03:23:36;;;;;;;3.73;2.80;;;;;;;14.41;100.00;26586.41;5076077;28;20043;-69
2023/08/14 03:26:02;;;;;;;7.95;3.30;;;;;;;14.35;100.00;27968.75;5079740;28;20035;-69
2023/08/14 03:28:28;;;;;;;4.20;3.13;;;;;;;14.35;100.00;27276.13;5075926;28;20399;-69
2023/08/14 03:30:53;;;;;;;10.10;3.57;;;;;;;14.31;100.00;27274.00;5062426;28;20031;-69
2023/08/14 03:33:18;;;;;;;6.57;3.50;;;;;;;14.28;100.00;26926.34;5081615;28;20115;-70
2023/08/14 03:35:44;;;;;;;12.53;3.40;;;;;;;14.26;100.00;26925.63;5075478;28;20024;-69
2023/08/14 03:38:09;;;;;;;6.07;2.90;;;;;;;14.28;100.00;25888.06;5066050;28;20020;-69
2023/08/14 03:40:35;;;;;;;5.23;3.43;;;;;;;14.32;100.00;23813.31;5079851;28;20032;-68
2023/08/14 03:43:00;;;;;;;8.43;3.47;;;;;;;14.33;100.00;22430.13;5078765;28;20891;-69
2023/08/14 03:45:25;;;;;;;8.50;3.77;;;;;;;14.36;100.00;21048.13;5076196;28;20070;-70
2023/08/14 03:47:51;;;;;;;9.40;3.30;;;;;;;14.35;100.00;21393.69;5079656;28;20024;-69
2023/08/14 03:50:16;;;;;;;9.73;3.60;;;;;;;14.42;100.00;19321.88;5058198;28;20024;-70
2023/08/14 03:52:42;;;;;;;7.00;4.00;;;;;;;14.37;100.00;19320.31;5077480;28;20802;-69
2023/08/14 03:55:08;;;;;;;14.93;3.63;;;;;;;14.40;100.00;17593.53;5057699;28;20028;-69
2023/08/14 03:57:33;;;;;;;5.13;3.65;;;;;;;14.33;100.00;18282.19;5077952;28;20118;-71
2023/08/14 03:59:59;;;;;;;8.47;3.77;;;;;;;14.39;100.00;17247.78;5077021;28;20123;-69
2023/08/14 04:02:24;;;;;;;7.00;4.03;;;;;;;14.36;100.00;17592.28;5075592;28;20081;-70
2023/08/14 04:04:50;;;;;;;5.50;3.93;;;;;;;14.35;100.00;18282.88;5057956;28;20577;-69
2023/08/14 04:07:15;;;;;;;10.20;4.03;;;;;;;14.31;100.00;18627.03;5075694;28;20519;-70
2023/08/14 04:09:40;;;;;;;7.87;3.70;;;;;;;14.29;100.00;19662.94;5077422;28;20029;-69
2023/08/14 04:12:07;;;;;;;8.97;4.40;;;;;;;14.28;100.00;20008.38;5079309;28;20024;-70
2023/08/14 04:14:33;;;;;;;7.00;4.28;;;;;;;14.28;100.00;21045.31;5075873;28;20021;-70
2023/08/14 04:16:58;;;;;;;6.53;4.17;;;;;;;14.31;100.00;20700.56;5077664;28;20104;-69
2023/08/14 04:19:24;;;;;;;7.73;4.63;;;;;;;14.37;100.00;19665.75;5079329;28;20044;-71
2023/08/14 04:21:49;;;;;;;10.80;5.63;;;;;;;14.35;100.00;18628.38;5086241;28;20110;-69
2023/08/14 04:24:14;;;;;;;6.73;4.97;;;;;;;14.34;100.00;18282.53;5080093;28;20027;-69
2023/08/14 04:26:40;;;;;;;9.23;6.07;;;;;;;14.39;100.00;17938.69;5076464;28;20279;-71
2023/08/14 04:29:06;;;;;;;11.27;5.53;;;;;;;14.43;100.00;16558.38;5079963;28;20040;-69
2023/08/14 04:31:41;;;;;;;9.27;5.38;;;;;;;14.47;100.00;15523.34;5074338;28;20032;-72
2023/08/14 04:34:08;;;;;;;12.02;5.40;;;;;;;14.46;100.00;15523.06;5076137;28;20032;-73
2023/08/14 04:36:33;;;;;;;;;;;;;;;14.49;100.00;16214.63;5064194;28;20512;-73
2023/08/14 04:38:59;;;;;;;9.85;5.47;;;;;;;14.53;100.00;15525.03;5078405;28;19913;-73
2023/08/14 04:41:26;;;;;;;10.27;5.38;;;;;;;14.56;100.00;16562.25;5076854;28;20036;-73
2023/08/14 04:43:51;;;;;;;10.52;6.07;;;;;;;14.64;100.00;15873.56;5060511;28;20560;-73
2023/08/14 04:46:30;;;;;;;10.80;6.63;;;;;;;14.73;100.00;14840.00;5073799;28;20036;-73
2023/08/14 04:48:56;;;;;;;10.02;6.38;;;;;;;14.80;100.00;13460.28;5077763;28;20028;-73
2023/08/14 04:51:21;;;;;;;12.15;6.53;;;;;;;14.80;100.00;14150.97;5072164;28;20025;-73
2023/08/14 04:53:47;;;;;;;20.73;7.67;;;;;;;14.86;100.00;12771.16;5076629;28;20454;-73
2023/08/14 04:56:12;;;;;;;8.23;7.23;;;;;;;14.93;100.00;12082.22;5078795;28;20060;-73
2023/08/14 04:58:37;;;;;;;12.60;6.97;;;;;;;14.96;100.00;12773.53;5074839;28;20039;-73
2023/08/14 05:01:03;;;;;;;11.87;6.53;;;;;;;15.04;100.00;12775.44;5071308;28;20082;-73
2023/08/14 05:03:28;;;;;;;10.33;5.93;;;;;;;15.07;100.00;12776.28;5073567;28;20040;-73
2023/08/14 05:05:53;;;;;;;13.87;6.20;;;;;;;15.17;100.00;12433.22;5078463;28;20456;-72
2023/08/14 05:08:19;;;;;;;16.10;7.20;;;;;;;15.24;100.00;12780.19;5076673;28;20383;-72
2023/08/14 05:10:49;;;;;;;15.00;6.40;;;;;;;15.29;100.00;13818.09;5059517;28;20020;-73
2023/08/14 05:13:15;;;;;;;13.32;6.13;;;;;;;15.34;100.00;14510.88;5079153;28;20032;-73
2023/08/14 05:15:40;;;;;;;14.30;6.60;;;;;;;15.39;100.00;14857.81;5076059;28;20441;-73
2023/08/14 05:18:06;;;;;;;12.10;6.80;;;;;;;15.42;100.00;15550.28;5067131;28;20070;-72
2023/08/14 05:20:34;;;;;;;12.47;7.27;;;;;;;15.48;100.00;15206.25;5078315;28;20038;-73
2023/08/14 05:22:59;;;;;;;10.35;6.78;;;;;;;15.50;100.00;15898.44;5079738;28;20028;-73
2023/08/14 05:25:25;;;;;;;11.60;7.40;;;;;;;15.52;100.00;16245.13;5060245;28;20051;-73
2023/08/14 05:27:50;;;;;;;12.53;8.03;;;;;;;15.54;100.00;17629.69;5080928;28;20043;-73
2023/08/14 05:30:15;;;;;;;15.83;8.00;;;;;;;15.60;100.00;18670.13;5060708;28;20035;-73
2023/08/14 05:32:41;;;;;;;12.47;7.07;;;;;;;15.66;100.00;19711.06;5081289;28;20024;-73
2023/08/14 05:35:07;;;;;;;13.23;6.93;;;;;;;15.70;100.00;20751.72;5082040;28;20029;-73
2023/08/14 05:37:32;;;;;;;10.07;7.00;;;;;;;15.77;100.00;22487.19;5079137;28;20028;-72
2023/08/14 05:39:57;;;;;;;11.83;7.23;;;;;;;15.85;100.00;23877.44;5076079;28;20366;-69
2023/08/14 05:42:23;;;;;;;16.63;7.47;;;;;;;15.94;100.00;25963.03;5070811;28;20059;-71
2023/08/14 05:44:48;;;;;;;12.93;7.53;;;;;;;16.03;100.00;28050.59;5084335;28;20020;-71
2023/08/14 05:47:14;;;;;;;11.60;7.53;;;;;;;16.15;100.00;30140.94;5068397;28;20078;-69
2023/08/14 05:49:39;;;;;;;11.83;7.70;;;;;;;16.26;100.00;33624.66;5066459;28;20106;-70
2023/08/14 05:52:05;;;;;;;8.87;6.97;;;;;;;16.38;100.00;36416.25;5079769;28;20131;-69
2023/08/14 05:54:30;;;;;;;13.77;7.00;;;;;;;16.51;100.00;38166.66;5083739;28;20020;-69
2023/08/14 05:56:55;;;;;;;12.90;7.20;;;;;;;16.59;100.00;40960.97;5082323;28;20059;-72
2023/08/14 05:59:21;;;;;;;11.10;7.03;;;;;;;16.71;100.00;44808.00;5060051;28;20104;-73
2023/08/14 06:01:46;;;;;;;21.53;7.53;;;;;;;16.80;100.00;50406.34;5080671;28;20391;-73
2023/08/14 06:04:12;;;;;;;7.80;6.23;;;;;;;16.84;100.00;61266.50;5081026;28;20555;-73
2023/08/14 06:06:37;;;;;;;9.97;6.47;;;;;;;16.98;100.00;66546.66;5080883;28;20107;-73
2023/08/14 06:09:03;;;;;;;11.00;6.73;;;;;;;17.03;100.00;73232.03;5076722;28;20479;-72
2023/08/14 06:11:28;;;;;;;7.83;6.33;;;;;;;17.09;100.00;81340.56;5075005;28;20048;-73
2023/08/14 06:13:53;;;;;;;15.40;6.60;;;;;;;17.33;100.00;90202.38;5076686;28;20496;-73
2023/08/14 06:16:19;;;;;;;11.60;6.47;;;;;;;17.39;100.00;100122.41;5075716;28;20043;-73
2023/08/14 06:18:44;;;;;;;11.70;6.80;;;;;;;17.57;100.00;103344.56;5079025;28;20028;-74
2023/08/14 06:21:10;;;;;;;9.07;5.90;;;;;;;17.68;100.00;102653.84;5077286;28;20115;-73
2023/08/14 06:23:35;;;;;;;12.07;5.50;;;;;;;17.75;100.00;105860.78;5081377;28;20129;-73
2023/08/14 06:26:01;;;;;;;10.43;5.33;;;;;;;17.95;100.00;125124.91;5081857;28;20047;-73
2023/08/14 06:28:26;;;;;;;11.27;5.40;;;;;;;18.03;100.00;132288.41;5080103;28;20031;-73
2023/08/14 06:30:51;;;;;;;10.40;5.00;;;;;;;18.13;100.00;149508.25;5060024;28;20035;-73
2023/08/14 06:33:17;;;;;;;11.00;5.80;;;;;;;18.23;100.00;156006.81;5076170;28;20028;-73
2023/08/14 06:35:42;;;;;;;6.30;4.43;;;;;;;18.37;100.00;156042.03;5075903;28;20754;-68
2023/08/14 06:38:08;;;;;;;5.17;3.93;;;;;;;18.57;100.00;156094.16;5066853;28;20020;-69
2023/08/14 06:40:33;;;;;;;7.97;3.63;;;;;;;18.55;100.00;156088.91;5077272;28;20025;-67
2023/08/14 06:42:59;;;;;;;8.40;3.73;;;;;;;18.64;100.00;156112.38;5075669;28;20319;-70
2023/08/14 06:45:24;;;;;;;8.23;3.87;;;;;;;18.82;100.00;156159.28;5079331;28;20024;-72
2023/08/14 06:47:50;;;;;;;12.27;4.20;;;;;;;19.34;100.00;156296.19;5077216;28;20024;-71
2023/08/14 06:50:16;;;;;;;6.17;4.00;;;;;;;20.36;100.00;156562.25;5062522;28;20194;-73
2023/08/14 06:52:41;;;;;;;4.88;2.97;;;;;;;21.16;100.00;156769.75;5065201;28;20016;-70
2023/08/14 06:55:07;;;;;;;4.77;2.83;;;;;;;22.01;100.00;156993.09;5081578;28;20067;-70
2023/08/14 06:57:32;;;;;;;3.53;2.60;;;;;;;22.73;100.00;157179.97;5082166;28;20564;-70
2023/08/14 07:00:04;;;;;;;5.90;2.80;;;;;;;23.74;100.00;157445.38;5077798;28;20052;-71
2023/08/14 07:02:29;;;;;;;5.50;2.63;;;;;;;23.96;100.00;157502.94;5080678;28;20059;-71
2023/08/14 07:04:55;;;;;;;11.03;3.20;;;;;;;24.24;100.00;157574.91;5076684;28;20537;-69
2023/08/14 07:07:20;;;;;;;4.97;3.07;;;;;;;24.48;100.00;157637.72;5073678;28;20027;-70
2023/08/14 07:09:45;;;;;;;7.70;2.80;;;;;;;23.77;100.00;157451.91;5077473;28;20111;-69
2023/08/14 07:12:11;;;;;;;8.97;3.30;;;;;;;22.86;100.00;157213.94;5069212;28;20020;-71
2023/08/14 07:14:36;;;;;;;6.93;2.92;;;;;;;22.64;100.00;157156.44;5078764;28;20035;-69
2023/08/14 07:17:02;;;;;;;7.07;3.10;;;;;;;22.08;100.00;157010.09;5064265;28;20039;-69
2023/08/14 07:19:27;;;;;;;6.80;3.30;;;;;;;21.84;100.00;156947.38;5058362;28;20035;-70
2023/08/14 07:21:52;;;;;;;8.43;3.83;;;;;;;21.65;100.00;156897.69;5059012;28;20063;-69
2023/08/14 07:24:18;;;;;;;4.50;3.17;;;;;;;21.98;100.00;156985.25;5079208;28;20480;-69
2023/08/14 07:26:43;;;;;;;7.93;3.37;;;;;;;22.56;100.00;157135.56;5073360;28;20388;-70
2023/08/14 07:29:08;;;;;;;6.90;3.27;;;;;;;23.04;100.00;157261.00;5075538;28;20047;-69
2023/08/14 07:31:34;;;;;;;10.60;3.40;;;;;;;23.38;100.00;157351.22;5073144;28;20034;-69
2023/08/14 07:33:59;;;;;;;10.00;3.77;;;;;;;23.55;100.00;157395.69;5078473;28;20032;-69
2023/08/14 07:36:24;;;;;;;5.70;3.10;;;;;;;23.62;100.00;157412.66;5060980;28;20051;-71
2023/08/14 07:38:50;;;;;;;3.67;2.43;;;;;;;24.00;100.00;157512.16;5078546;28;20040;-69
2023/08/14 07:41:15;;;;;;;12.47;3.10;;;;;;;23.96;100.00;157502.94;5078663;28;20036;-69
2023/08/14 07:43:40;;;;;;;8.10;3.07;;;;;;;23.93;100.00;157495.13;5084892;28;20127;-71
2023/08/14 07:46:07;;;;;;;9.27;2.40;;;;;;;24.07;100.00;157531.72;5075139;28;20055;-69
2023/08/14 07:48:33;;;;;;;7.30;2.75;;;;;;;24.07;100.00;157530.44;5081785;28;20031;-70
2023/08/14 07:50:58;;;;;;;4.53;2.10;;;;;;;24.16;100.00;157554.00;5077747;28;20028;-69
2023/08/14 07:53:23;;;;;;;7.10;2.40;;;;;;;24.14;99.34;157548.75;5082983;28;20028;-69
2023/08/14 07:55:49;;;;;;;4.43;2.27;;;;;;;23.80;96.68;157459.78;5076365;28;20024;-70
2023/08/14 07:58:15;;;;;;;7.33;2.23;;;;;;;23.80;99.54;157459.78;5078789;28;20021;-69
2023/08/14 08:00:41;;;;;;;6.80;2.42;;;;;;;23.85;100.00;157472.84;5074637;28;20583;-70
2023/08/14 08:03:07;;;;;;;5.93;2.22;;;;;;;24.03;100.00;157519.97;5077856;28;20186;-69
2023/08/14 08:05:32;;;;;;;9.50;2.60;;;;;;;23.88;95.43;157480.66;5075231;28;20115;-71
2023/08/14 08:07:58;;;;;;;4.60;2.30;;;;;;;23.94;97.75;157496.41;5075763;28;20031;-69
2023/08/14 08:10:23;;;;;;;6.17;2.50;;;;;;;23.58;99.03;157402.25;5080227;28;20498;-69
2023/08/14 08:12:48;;;;;;;4.03;1.93;;;;;;;23.64;99.90;157417.94;5075670;28;20016;-69
2023/08/14 08:15:14;;;;;;;4.90;1.90;;;;;;;23.64;100.00;157417.94;5080600;28;20103;-70
2023/08/14 08:17:39;;;;;;;5.73;2.27;;;;;;;23.74;100.00;157444.09;5076599;28;20464;-69
2023/08/14 08:20:05;;;;;;;5.13;1.73;;;;;;;23.80;100.00;157461.03;5079724;28;20025;-69
2023/08/14 08:22:31;;;;;;;6.90;2.40;;;;;;;23.87;100.00;157478.06;5077398;28;20100;-69
2023/08/14 08:24:57;;;;;;;10.77;2.55;;;;;;;23.75;100.00;157446.69;5084806;28;20387;-69
2023/08/14 08:27:22;;;;;;;11.83;3.00;;;;;;;23.86;100.00;157476.75;5079338;28;20039;-71
2023/08/14 08:29:48;;;;;;;8.07;2.63;;;;;;;23.70;100.00;157434.88;5064281;28;20024;-69
2023/08/14 08:32:13;;;;;;;8.63;2.30;;;;;;;23.68;100.00;157428.41;5075159;28;20040;-68
2023/08/14 08:34:38;;;;;;;10.37;3.00;;;;;;;23.55;100.00;157394.38;5077202;28;20032;-69
2023/08/14 08:37:04;;;;;;;9.03;2.40;;;;;;;23.74;100.00;157444.09;5077057;28;20472;-70
2023/08/14 08:39:29;;;;;;;6.43;2.40;;;;;;;23.80;100.00;157459.78;5081336;28;20033;-71
2023/08/14 08:41:56;;;;;;;9.07;2.63;;;;;;;23.59;100.00;157404.84;5065075;28;20085;-69
2023/08/14 08:44:24;;;;;;;6.03;2.53;;;;;;;23.60;100.00;157407.44;5077453;28;20040;-69
2023/08/14 08:47:07;;;;;;;7.57;2.80;;;;;;;23.81;100.00;157462.38;5078315;28;20487;-69
2023/08/14 08:49:34;;;;;;;12.25;3.22;;;;;;;23.84;100.00;157471.53;5080131;28;20031;-69
2023/08/14 08:52:02;;;;;;;13.30;3.47;;;;;;;23.72;100.00;157438.81;5082160;28;20550;-69
2023/08/14 08:54:29;;;;;;;7.53;3.38;;;;;;;24.05;100.00;157525.19;5082795;28;20104;-70
2023/08/14 08:56:56;;;;;;;7.05;2.67;;;;;;;24.16;100.00;157555.28;5079310;28;20029;-69
2023/08/14 08:59:22;;;;;;;7.90;3.15;;;;;;;24.23;100.00;157572.31;5065462;28;20028;-69
2023/08/14 09:01:48;;;;;;;8.88;4.05;;;;;;;24.27;100.00;157582.78;5074466;28;20032;-68
2023/08/14 09:04:14;;;;;;;9.30;3.10;;;;;;;24.39;99.34;157614.16;5076233;28;20139;-69
2023/08/14 09:06:39;;;;;;;9.18;3.50;;;;;;;24.50;99.66;157642.94;5083502;28;20028;-74
2023/08/14 09:09:06;;;;;;;9.67;2.83;;;;;;;24.69;100.00;157694.03;5080629;28;20032;-75
2023/08/14 09:11:31;;;;;;;;;;;;;;;24.76;97.40;157712.31;5075401;28;20478;-70
2023/08/14 09:13:57;;;;;;;9.52;3.08;;;;;;;24.75;100.00;157708.44;5054103;28;19912;-70
2023/08/14 09:16:24;;;;;;;6.28;2.78;;;;;;;24.89;96.75;157745.06;5055890;28;20126;-71
2023/08/14 09:18:49;;;;;;;5.85;2.47;;;;;;;25.14;94.96;157810.50;5076402;28;20112;-69
2023/08/14 09:21:15;;;;;;;10.00;2.40;;;;;;;25.19;94.03;157823.59;5073306;28;20099;-69
2023/08/14 09:23:42;;;;;;;10.10;3.00;;;;;;;25.22;94.04;157831.44;5074094;28;20021;-71
2023/08/14 09:26:07;;;;;;;;;;;;;;;25.48;93.15;157899.56;5075462;28;20043;-69
2023/08/14 09:28:33;;;;;;;3.92;2.55;;;;;;;25.40;92.23;157878.63;5074056;28;20482;-73
2023/08/14 09:31:09;;;;;;;10.50;3.35;;;;;;;25.39;92.60;157876.03;5071049;28;20036;-71
2023/08/14 09:33:40;;;;;;;6.13;2.50;;;;;;;25.29;91.44;157849.84;5060300;28;20795;-72
2023/08/14 09:36:06;;;;;;;6.78;3.08;;;;;;;25.60;90.79;157932.31;5065344;28;20527;-70
2023/08/14 09:38:31;;;;;;;7.57;2.38;;;;;;;25.56;88.53;157921.81;5056842;28;20077;-69
2023/08/14 09:40:58;;;;;;;9.43;2.45;;;;;;;25.60;87.13;157932.31;5082125;28;20411;-71
2023/08/14 09:43:24;;;;;;;9.30;2.75;;;;;;;25.49;87.20;157903.50;5056293;28;20052;-72
2023/08/14 09:45:51;;;;;;;8.95;2.25;;;;;;;25.65;85.94;157945.41;5075921;28;20434;-69
2023/08/14 09:48:19;;;;;;;8.07;2.15;;;;;;;25.86;87.00;157999.06;5075476;28;20105;-69
2023/08/14 09:50:52;;;;;;;8.98;3.22;;;;;;;25.92;84.16;158014.88;5080214;28;20032;-72
2023/08/14 09:53:18;;;;;;;8.90;2.05;;;;;;;26.21;85.74;158090.84;5081110;28;20031;-71
2023/08/14 09:55:44;;;;;;;8.30;2.20;;;;;;;26.36;81.04;158130.16;5061332;28;20103;-71
2023/08/14 09:58:10;;;;;;;7.18;2.70;;;;;;;26.14;80.42;158073.78;5078368;28;20031;-70
2023/08/14 10:00:37;;;;;;;14.82;2.60;;;;;;;26.26;80.10;158105.22;5078356;28;20142;-70
2023/08/14 10:03:05;;;;;;;7.65;2.47;;;;;;;26.35;76.85;158127.53;5078482;28;20441;-71
2023/08/14 10:05:33;;;;;;;5.00;2.13;;;;;;;26.50;77.28;158166.78;5079974;28;20052;-71
2023/08/14 10:07:59;;;;;;;6.70;2.55;;;;;;;26.49;77.08;158164.19;5078028;28;20043;-71
2023/08/14 10:10:29;;;;;;;9.07;2.75;;;;;;;26.77;77.99;158238.94;5061291;28;20029;-70
2023/08/14 10:12:58;;;;;;;5.85;2.33;;;;;;;26.81;74.88;158248.09;5062381;28;20523;-70
2023/08/14 10:15:39;;;;;;;8.95;2.00;;;;;;;26.67;74.86;158211.44;5077857;28;20773;-72
2023/08/14 10:18:11;;;;;;;8.70;1.90;;;;;;;26.65;72.04;158206.16;5087072;28;20506;-67
2023/08/14 10:20:38;;;;;;;7.55;1.73;;;;;;;26.80;73.01;158245.50;5075941;28;20687;-67
2023/08/14 10:23:06;;;;;;;6.05;1.80;;;;;;;26.84;72.89;158255.97;5076302;28;20024;-71
2023/08/14 10:25:36;;;;;;;5.70;1.67;;;;;;;26.79;71.78;158242.88;5071648;28;20032;-71
2023/08/14 10:28:01;;;;;;;9.30;1.98;;;;;;;26.67;71.06;158211.44;5073829;28;20032;-71
2023/08/14 10:30:27;;;;;;;8.87;2.20;;;;;;;26.61;69.26;158195.66;5076633;28;20029;-72
2023/08/14 10:32:54;;;;;;;8.55;1.90;;;;;;;26.62;70.73;158198.34;5075107;28;20077;-72
2023/08/14 10:35:23;;;;;;;;;;;;;;;26.92;70.94;158276.94;5077598;28;20033;-71
2023/08/14 10:37:49;;;;;;;7.85;2.00;;;;;;;27.18;70.55;158345.13;5077885;28;19939;-72
2023/08/14 10:40:21;;;;;;;8.07;2.17;;;;;;;27.55;67.86;158442.16;5616830;22;21127;-73
2023/08/14 10:42:50;;;;;;;7.65;1.80;;;;;;;27.49;68.23;158426.44;5044614;28;20507;-75
2023/08/14 10:45:17;;;;;;;7.10;1.75;;;;;;;27.36;67.24;158392.38;5025818;28;20337;-71
2023/08/14 10:47:43;;;;;;;5.72;1.85;;;;;;;27.35;67.57;158389.69;5045750;28;20147;-74
2023/08/14 10:50:18;;;;;;;10.18;2.03;;;;;;;27.06;68.19;158313.63;5052722;28;20676;-73
2023/08/14 10:52:48;;;;;;;4.40;1.80;;;;;;;26.89;68.70;158269.09;5040904;28;20039;-74
2023/08/14 10:55:22;;;;;;;5.15;2.10;;;;;;;27.21;69.39;158353.03;5044486;28;20060;-72
2023/08/14 10:57:48;;;;;;;4.72;1.98;;;;;;;27.35;68.73;158389.69;5042025;28;20127;-73
2023/08/14 11:00:22;;;;;;;4.85;1.63;;;;;;;27.38;66.48;158397.59;5038616;28;20445;-73
2023/08/14 11:03:07;;;;;;;7.43;1.88;;;;;;;27.66;65.38;158471.00;5044931;28;20199;-74
2023/08/14 11:05:40;;;;;;;9.15;2.40;;;;;;;27.81;65.75;158510.41;5027391;28;20111;-74
2023/08/14 11:08:07;;;;;;;5.85;1.85;;;;;;;27.92;65.48;158539.25;5044084;28;20092;-74
2023/08/14 11:10:34;;;;;;;6.65;1.80;;;;;;;27.47;63.80;158421.19;5026387;28;20017;-73
2023/08/14 11:13:00;;;;;;;8.80;2.22;;;;;;;27.37;66.11;158394.97;5035973;28;20111;-74
2023/08/14 11:15:25;;;;;;;8.75;2.42;;;;;;;27.47;65.09;158421.19;5043815;28;20037;-73
2023/08/14 11:17:50;;;;;;;6.07;2.20;;;;;;;27.69;65.11;158480.16;5045611;28;20033;-73
2023/08/14 11:20:16;;;;;;;7.30;2.30;;;;;;;28.16;65.35;158602.22;5041591;28;20025;-73